createdAt,value
2023-01-08T00:00:52.880Z,67.59
2023-01-08T00:03:59.755Z,67.59
2023-01-08T00:07:07.127Z,67.47
2023-01-08T00:10:13.279Z,67.48
2023-01-08T00:13:21.191Z,67.47
2023-01-08T00:16:29.387Z,67.59
2023-01-08T00:19:34.494Z,67.59
2023-01-08T00:22:40.728Z,67.42
2023-01-08T00:25:48.015Z,67.33
2023-01-08T00:28:53.531Z,67.35
2023-01-08T00:32:02.153Z,67.19
2023-01-08T00:35:08.418Z,67.24
2023-01-08T00:38:14.824Z,67.43
2023-01-08T00:41:21.543Z,67.49
2023-01-08T00:44:27.448Z,67.47
2023-01-08T00:47:33.923Z,67.48
2023-01-08T00:50:39.838Z,67.51
2023-01-08T00:53:48.132Z,67.50
2023-01-08T00:56:54.789Z,67.38
2023-01-08T01:00:00.637Z,67.29
2023-01-08T01:03:07.613Z,67.07
2023-01-08T01:06:17.080Z,67.39
2023-01-08T01:09:25.966Z,67.39
2023-01-08T01:12:31.675Z,67.24
2023-01-08T01:15:38.704Z,67.15
2023-01-08T01:18:37.981Z,67.15
2023-01-08T01:21:44.381Z,67.08
2023-01-08T01:24:50.203Z,67.04
2023-01-08T01:27:55.923Z,66.95
2023-01-08T01:31:10.251Z,66.95
2023-01-08T01:34:15.398Z,66.92
2023-01-08T01:37:21.321Z,66.99
2023-01-08T01:40:26.482Z,66.98
2023-01-08T01:43:53.431Z,67.03
2023-01-08T01:46:58.907Z,67.02
2023-01-08T01:50:22.052Z,67.03
2023-01-08T01:53:31.301Z,67.12
2023-01-08T01:56:36.687Z,66.96
2023-01-08T01:59:42.046Z,67.02
2023-01-08T02:02:48.428Z,66.80
2023-01-08T02:06:16.565Z,66.80
2023-01-08T02:09:51.685Z,66.74
2023-01-08T02:13:04.835Z,66.85
2023-01-08T02:16:14.713Z,66.85
2023-01-08T02:19:54.759Z,66.78
2023-01-08T02:23:46.141Z,66.85
2023-01-08T02:26:51.653Z,66.91
2023-01-08T02:29:57.768Z,66.82
2023-01-08T02:33:03.878Z,66.53
2023-01-08T02:36:32.547Z,66.43
2023-01-08T02:40:21.964Z,65.99
2023-01-08T02:43:34.826Z,65.99
2023-01-08T02:46:42.604Z,66.18
2023-01-08T02:49:49.481Z,66.25
2023-01-08T02:53:17.026Z,66.12
2023-01-08T02:56:25.814Z,66.12
2023-01-08T02:59:31.697Z,66.24
2023-01-08T03:02:41.205Z,66.43
2023-01-08T03:05:46.807Z,66.49
2023-01-08T03:08:57.248Z,66.58
2023-01-08T03:12:12.270Z,66.58
2023-01-08T03:15:22.583Z,66.58
2023-01-08T03:18:29.690Z,66.56
2023-01-08T03:21:36.022Z,66.54
2023-01-08T03:24:46.015Z,66.40
2023-01-08T03:27:54.806Z,66.35
2023-01-08T03:31:00.648Z,66.08
2023-01-08T03:34:06.648Z,66.10
2023-01-08T03:37:15.004Z,66.24
2023-01-08T03:40:34.203Z,66.24
2023-01-08T03:43:39.192Z,66.32
2023-01-08T03:46:46.973Z,66.37
2023-01-08T03:49:53.708Z,66.43
2023-01-08T03:53:01.915Z,66.43
2023-01-08T03:56:09.616Z,66.36
2023-01-08T03:59:14.708Z,66.23
2023-01-08T04:02:21.108Z,66.32
2023-01-08T04:05:27.717Z,66.28
2023-01-08T04:08:33.657Z,66.18
2023-01-08T04:11:38.997Z,66.18
2023-01-08T04:14:44.256Z,66.22
2023-01-08T04:17:50.836Z,66.16
2023-01-08T04:21:01.515Z,66.25
2023-01-08T04:24:08.705Z,65.99
2023-01-08T04:27:16.414Z,65.75
2023-01-08T04:30:22.365Z,65.86
2023-01-08T04:33:27.947Z,66.01
2023-01-08T04:36:33.333Z,66.02
2023-01-08T04:39:41.234Z,65.86
2023-01-08T04:42:46.318Z,65.90
2023-01-08T04:45:52.400Z,66.05
2023-01-08T04:48:58.932Z,66.18
2023-01-08T04:52:05.931Z,66.08
2023-01-08T04:55:12.419Z,65.96
2023-01-08T04:58:18.898Z,66.01
2023-01-08T05:01:35.379Z,66.05
2023-01-08T05:04:35.153Z,66.02
2023-01-08T05:07:22.575Z,65.94
2023-01-08T05:10:17.711Z,66.05
2023-01-08T05:13:09.223Z,66.08
2023-01-08T05:16:01.940Z,66.09
2023-01-08T05:19:07.110Z,66.12
2023-01-08T05:22:16.537Z,66.17
2023-01-08T05:25:24.462Z,66.06
2023-01-08T05:28:31.006Z,65.99
2023-01-08T05:31:38.384Z,65.84
2023-01-08T05:34:44.755Z,65.83
2023-01-08T05:37:51.295Z,66.00
2023-01-08T05:40:59.050Z,66.09
2023-01-08T05:44:06.165Z,66.03
2023-01-08T05:47:14.442Z,66.11
2023-01-08T05:50:23.151Z,66.16
2023-01-08T05:53:29.478Z,66.09
2023-01-08T05:56:35.878Z,66.09
2023-01-08T05:59:43.087Z,66.07
2023-01-08T06:02:49.485Z,65.96
2023-01-08T06:05:56.112Z,65.99
2023-01-08T06:09:03.140Z,66.05
2023-01-08T06:12:09.146Z,66.08
2023-01-08T06:15:14.736Z,65.99
2023-01-08T06:18:20.528Z,66.06
2023-01-08T06:21:26.700Z,66.13
2023-01-08T06:24:32.207Z,66.09
2023-01-08T06:27:40.698Z,66.16
2023-01-08T06:30:48.496Z,66.28
2023-01-08T06:33:55.421Z,66.36
2023-01-08T06:37:01.693Z,66.35
2023-01-08T06:40:08.640Z,66.21
2023-01-08T06:43:18.276Z,65.98
2023-01-08T06:46:23.648Z,65.93
2023-01-08T06:49:31.665Z,66.10
2023-01-08T06:52:39.567Z,66.08
2023-01-08T06:55:45.464Z,66.02
2023-01-08T06:58:51.104Z,66.00
2023-01-08T07:01:59.300Z,65.97
2023-01-08T07:05:04.113Z,66.09
2023-01-08T07:08:11.107Z,66.01
2023-01-08T07:11:20.475Z,66.02
2023-01-08T07:14:26.835Z,66.04
2023-01-08T07:17:33.907Z,66.07
2023-01-08T07:20:39.676Z,66.21
2023-01-08T07:23:46.424Z,66.16
2023-01-08T07:26:52.027Z,66.01
2023-01-08T07:29:57.806Z,65.94
2023-01-08T07:33:03.204Z,65.87
2023-01-08T07:36:09.187Z,65.98
2023-01-08T07:39:15.860Z,66.02
2023-01-08T07:42:23.052Z,66.14
2023-01-08T07:45:32.116Z,66.16
2023-01-08T07:48:38.568Z,66.08
2023-01-08T07:51:45.953Z,66.08
2023-01-08T07:54:52.522Z,65.76
2023-01-08T07:57:58.837Z,65.39
2023-01-08T08:01:05.487Z,65.39
2023-01-08T08:04:10.633Z,65.55
2023-01-08T08:07:16.743Z,65.41
2023-01-08T08:10:21.310Z,65.35
2023-01-08T08:13:28.174Z,65.48
2023-01-08T08:16:35.207Z,65.48
2023-01-08T08:19:40.892Z,65.57
2023-01-08T08:22:46.017Z,65.57
2023-01-08T08:25:51.019Z,65.68
2023-01-08T08:28:57.015Z,65.84
2023-01-08T08:32:02.486Z,65.91
2023-01-08T08:35:09.300Z,65.79
2023-01-08T08:38:17.436Z,65.88
2023-01-08T08:41:23.459Z,65.89
2023-01-08T08:44:30.806Z,65.69
2023-01-08T08:47:37.329Z,65.61
2023-01-08T08:50:47.527Z,65.63
2023-01-08T08:53:54.712Z,65.83
2023-01-08T08:57:02.303Z,66.17
2023-01-08T09:00:08.088Z,66.06
2023-01-08T09:03:15.584Z,65.90
2023-01-08T09:06:27.945Z,65.79
2023-01-08T09:09:34.458Z,65.71
2023-01-08T09:12:40.530Z,65.65
2023-01-08T09:15:46.807Z,65.71
2023-01-08T09:18:55.433Z,65.74
2023-01-08T09:22:00.407Z,65.72
2023-01-08T09:25:06.661Z,65.77
2023-01-08T09:28:19.831Z,65.53
2023-01-08T09:31:26.504Z,65.56
2023-01-08T09:34:33.164Z,65.62
2023-01-08T09:37:39.336Z,65.55
2023-01-08T09:40:56.004Z,65.52
2023-01-08T09:44:06.540Z,65.53
2023-01-08T09:47:13.039Z,65.67
2023-01-08T09:50:20.714Z,65.67
2023-01-08T09:53:29.593Z,65.80
2023-01-08T09:56:34.819Z,65.66
2023-01-08T09:59:42.603Z,65.67
2023-01-08T10:02:51.059Z,65.59
2023-01-08T10:05:56.080Z,65.65
2023-01-08T10:09:01.916Z,65.59
2023-01-08T10:12:06.786Z,65.43
2023-01-08T10:15:21.694Z,65.21
2023-01-08T10:18:28.555Z,65.32
2023-01-08T10:21:36.285Z,65.28
2023-01-08T10:24:50.098Z,65.29
2023-01-08T10:28:14.714Z,65.41
2023-01-08T10:31:25.441Z,65.69
2023-01-08T10:35:11.881Z,66.01
2023-01-08T10:38:19.277Z,65.93
2023-01-08T10:41:26.937Z,65.67
2023-01-08T10:44:32.964Z,65.46
2023-01-08T10:47:39.199Z,65.42
2023-01-08T10:50:47.020Z,65.34
2023-01-08T10:53:52.925Z,65.17
2023-01-08T10:57:02.299Z,65.34
2023-01-08T11:00:06.767Z,65.33
2023-01-08T11:03:16.085Z,65.29
2023-01-08T11:06:30.571Z,65.26
2023-01-08T11:09:41.300Z,65.50
2023-01-08T11:12:55.205Z,65.64
2023-01-08T11:16:01.668Z,65.52
2023-01-08T11:19:09.027Z,65.36
2023-01-08T11:22:40.241Z,65.10
2023-01-08T11:25:46.831Z,65.37
2023-01-08T11:29:32.135Z,65.00
2023-01-08T11:33:22.069Z,65.04
2023-01-08T11:36:36.996Z,65.03
2023-01-08T11:39:43.917Z,65.23
2023-01-08T11:43:09.103Z,65.05
2023-01-08T11:46:33.574Z,64.98
2023-01-08T11:49:51.206Z,64.95
2023-01-08T11:53:42.421Z,64.87
2023-01-08T11:57:02.352Z,64.82
2023-01-08T12:00:15.409Z,64.78
2023-01-08T12:03:41.724Z,64.61
2023-01-08T12:07:13.583Z,64.54
2023-01-08T12:10:44.888Z,64.71
2023-01-08T12:14:07.139Z,65.06
2023-01-08T12:17:45.825Z,65.09
2023-01-08T12:21:06.917Z,65.00
2023-01-08T12:24:57.863Z,64.87
2023-01-08T12:28:32.034Z,64.78
2023-01-08T12:32:14.641Z,64.60
2023-01-08T12:35:43.735Z,64.57
2023-01-08T12:39:00.802Z,64.56
2023-01-08T12:42:07.047Z,64.59
2023-01-08T12:45:13.966Z,64.53
2023-01-08T12:48:35.746Z,64.75
2023-01-08T12:51:49.520Z,64.67
2023-01-08T12:55:33.333Z,64.30
2023-01-08T12:59:02.943Z,64.43
2023-01-08T13:02:50.642Z,64.32
2023-01-08T13:05:57.112Z,64.51
2023-01-08T13:09:08.216Z,64.45
2023-01-08T13:12:14.797Z,64.27
2023-01-08T13:15:21.692Z,64.06
2023-01-08T13:18:37.217Z,64.00
2023-01-08T13:21:55.041Z,64.04
2023-01-08T13:25:03.095Z,64.12
2023-01-08T13:28:10.544Z,64.08
2023-01-08T13:31:37.040Z,64.02
2023-01-08T13:34:53.811Z,63.90
2023-01-08T13:38:06.856Z,63.67
2023-01-08T13:41:12.489Z,63.50
2023-01-08T13:44:41.768Z,63.66
2023-01-08T13:47:49.478Z,63.80
2023-01-08T13:50:54.730Z,63.69
2023-01-08T13:54:03.969Z,63.72
2023-01-08T13:57:10.555Z,63.83
2023-01-08T14:00:15.669Z,63.93
2023-01-08T14:03:20.381Z,63.91
2023-01-08T14:06:35.015Z,63.84
2023-01-08T14:09:40.897Z,63.71
2023-01-08T14:12:45.601Z,63.62
2023-01-08T14:15:51.608Z,63.62
2023-01-08T14:19:00.177Z,63.68
2023-01-08T14:22:14.331Z,63.55
2023-01-08T14:25:21.719Z,63.44
2023-01-08T14:28:33.609Z,63.42
2023-01-08T14:31:40.434Z,63.55
2023-01-08T14:34:48.002Z,63.62
2023-01-08T14:37:55.050Z,63.49
2023-01-08T14:41:25.281Z,63.55
2023-01-08T14:44:38.022Z,63.75
2023-01-08T14:47:40.213Z,63.68
2023-01-08T14:50:56.395Z,63.69
2023-01-08T14:54:06.109Z,63.60
2023-01-08T14:57:12.645Z,63.54
2023-01-08T15:00:17.449Z,63.47
2023-01-08T15:03:47.107Z,63.47
2023-01-08T15:06:53.770Z,63.41
2023-01-08T15:10:01.828Z,63.37
2023-01-08T15:13:13.282Z,63.36
2023-01-08T15:16:27.358Z,63.44
2023-01-08T15:19:37.192Z,63.44
2023-01-08T15:22:44.800Z,63.48
2023-01-08T15:25:50.340Z,63.59
2023-01-08T15:29:06.857Z,63.69
2023-01-08T15:32:12.498Z,63.79
2023-01-08T15:35:33.106Z,63.85
2023-01-08T15:38:41.389Z,63.75
2023-01-08T15:42:09.077Z,63.83
2023-01-08T15:45:14.796Z,63.88
2023-01-08T15:48:21.366Z,63.90
2023-01-08T15:51:28.339Z,63.81
2023-01-08T15:54:35.011Z,63.74
2023-01-08T15:57:44.781Z,63.63
2023-01-08T16:00:49.866Z,63.79
2023-01-08T16:03:56.888Z,63.92
2023-01-08T16:07:06.591Z,64.01
2023-01-08T16:10:13.273Z,64.03
2023-01-08T16:13:19.002Z,63.91
2023-01-08T16:16:27.319Z,64.02
2023-01-08T16:19:36.445Z,63.90
2023-01-08T16:22:42.658Z,63.94
2023-01-08T16:25:49.312Z,63.91
2023-01-08T16:28:54.391Z,63.88
2023-01-08T16:32:02.823Z,63.89
2023-01-08T16:35:10.019Z,63.95
2023-01-08T16:38:17.380Z,63.96
2023-01-08T16:41:24.482Z,63.96
2023-01-08T16:44:35.338Z,63.94
2023-01-08T16:47:41.498Z,63.94
2023-01-08T16:50:48.890Z,63.65
2023-01-08T16:53:56.146Z,63.72
2023-01-08T16:57:01.907Z,63.73
2023-01-08T17:00:07.199Z,63.84
2023-01-08T17:03:13.392Z,63.80
2023-01-08T17:06:20.622Z,63.86
2023-01-08T17:09:26.979Z,63.86
2023-01-08T17:12:32.977Z,63.78
2023-01-08T17:15:40.615Z,63.65
2023-01-08T17:18:46.236Z,63.64
2023-01-08T17:21:54.994Z,63.37
2023-01-08T17:24:55.231Z,63.47
2023-01-08T17:27:45.240Z,63.48
2023-01-08T17:30:38.132Z,63.52
2023-01-08T17:33:23.924Z,63.56
2023-01-08T17:36:22.537Z,63.51
2023-01-08T17:39:10.227Z,63.43
2023-01-08T17:42:21.198Z,63.42
2023-01-08T17:45:27.454Z,63.39
2023-01-08T17:48:34.277Z,63.43
2023-01-08T17:51:40.713Z,63.50
2023-01-08T17:54:47.047Z,63.60
2023-01-08T17:57:54.074Z,63.50
2023-01-08T18:01:02.132Z,63.46
2023-01-08T18:04:07.488Z,63.40
2023-01-08T18:07:12.513Z,63.40
2023-01-08T18:10:20.229Z,63.40
2023-01-08T18:13:28.011Z,63.23
2023-01-08T18:16:33.811Z,63.35
2023-01-08T18:19:39.999Z,63.35
2023-01-08T18:22:47.046Z,63.11
2023-01-08T18:25:57.421Z,63.11
2023-01-08T18:29:04.901Z,63.31
2023-01-08T18:32:12.305Z,63.30
2023-01-08T18:35:21.413Z,63.26
2023-01-08T18:38:26.853Z,63.26
2023-01-08T18:41:58.255Z,63.29
2023-01-08T18:45:05.714Z,63.33
2023-01-08T18:48:11.675Z,63.22
2023-01-08T18:51:18.750Z,63.02
2023-01-08T18:54:26.602Z,63.20
2023-01-08T18:57:32.511Z,63.11
2023-01-08T19:00:40.592Z,63.09
2023-01-08T19:03:46.958Z,63.21
2023-01-08T19:06:52.181Z,63.28
2023-01-08T19:09:58.106Z,63.65
2023-01-08T19:13:03.574Z,63.95
2023-01-08T19:16:08.373Z,63.95
2023-01-08T19:19:13.930Z,63.67
2023-01-08T19:22:21.712Z,63.00
2023-01-08T19:25:28.998Z,63.00
2023-01-08T19:28:36.182Z,63.13
2023-01-08T19:31:42.168Z,62.97
2023-01-08T19:34:49.062Z,63.00
2023-01-08T19:37:56.023Z,63.00
2023-01-08T19:41:02.881Z,63.04
2023-01-08T19:44:12.396Z,62.99
2023-01-08T19:47:18.895Z,62.99
2023-01-08T19:50:26.347Z,63.08
2023-01-08T19:53:32.285Z,63.00
2023-01-08T19:56:38.833Z,63.06
2023-01-08T19:59:44.964Z,63.24
2023-01-08T20:02:49.990Z,63.26
2023-01-08T20:05:56.782Z,63.26
2023-01-08T20:09:09.116Z,63.36
2023-01-08T20:12:15.277Z,63.36
2023-01-08T20:15:24.309Z,63.67
2023-01-08T20:18:30.769Z,63.74
2023-01-08T20:21:36.112Z,63.74
2023-01-08T20:24:43.704Z,63.61
2023-01-08T20:27:48.869Z,63.61
2023-01-08T20:30:56.181Z,63.42
2023-01-08T20:34:02.283Z,63.51
2023-01-08T20:37:08.276Z,63.46
2023-01-08T20:40:13.995Z,63.47
2023-01-08T20:43:21.062Z,63.53
2023-01-08T20:46:26.724Z,63.53
2023-01-08T20:49:33.937Z,63.31
2023-01-08T20:52:43.794Z,63.31
2023-01-08T20:55:50.551Z,63.23
2023-01-08T20:58:59.413Z,63.22
2023-01-08T21:02:08.379Z,63.17
2023-01-08T21:05:15.245Z,63.28
2023-01-08T21:08:21.308Z,63.39
2023-01-08T21:11:29.876Z,63.44
2023-01-08T21:14:36.000Z,63.45
2023-01-08T21:17:41.309Z,63.23
2023-01-08T21:20:46.871Z,63.23
2023-01-08T21:23:52.151Z,63.46
2023-01-08T21:27:00.308Z,63.48
2023-01-08T21:30:08.797Z,63.48
2023-01-08T21:33:16.149Z,63.37
2023-01-08T21:36:25.970Z,63.26
2023-01-08T21:39:34.951Z,62.85
2023-01-08T21:43:00.236Z,62.99
2023-01-08T21:46:13.513Z,62.99
2023-01-08T21:49:18.842Z,63.11
2023-01-08T21:52:42.483Z,63.23
2023-01-08T21:55:49.825Z,63.45
2023-01-08T21:58:55.836Z,63.45
2023-01-08T22:02:03.311Z,63.31
2023-01-08T22:05:12.974Z,63.17
2023-01-08T22:08:21.707Z,63.16
2023-01-08T22:11:31.074Z,63.22
2023-01-08T22:14:37.325Z,63.20
2023-01-08T22:17:45.058Z,63.36
2023-01-08T22:20:51.222Z,63.30
2023-01-08T22:23:59.142Z,63.30
2023-01-08T22:27:05.928Z,63.47
2023-01-08T22:30:10.872Z,63.42
2023-01-08T22:33:16.850Z,63.23
2023-01-08T22:36:25.595Z,63.23
2023-01-08T22:39:31.078Z,63.12
2023-01-08T22:42:38.936Z,63.12
2023-01-08T22:45:44.147Z,62.98
2023-01-08T22:48:51.182Z,62.98
2023-01-08T22:51:57.118Z,63.22
2023-01-08T22:55:05.354Z,63.24
2023-01-08T22:58:11.609Z,63.26
2023-01-08T23:01:18.517Z,63.44
2023-01-08T23:04:25.043Z,63.34
2023-01-08T23:07:31.144Z,63.34
2023-01-08T23:10:38.214Z,63.47
2023-01-08T23:13:46.184Z,63.45
2023-01-08T23:16:51.819Z,63.45
2023-01-08T23:19:57.845Z,63.28
2023-01-08T23:23:04.946Z,63.28
2023-01-08T23:26:10.905Z,63.37
2023-01-08T23:29:17.826Z,63.42
2023-01-08T23:32:23.824Z,63.39
2023-01-08T23:35:33.080Z,63.43
2023-01-08T23:38:38.895Z,63.57
2023-01-08T23:41:45.667Z,63.57
2023-01-08T23:44:51.784Z,63.74
2023-01-08T23:47:58.757Z,63.74
2023-01-08T23:51:04.034Z,63.32
2023-01-08T23:54:10.410Z,63.39
2023-01-08T23:57:17.266Z,63.41
